Time;durP1;ratioP1;P1;durP2;ratioP2;P2;SDS_P1;SDS_P2;PMS_P1;PMS_P2;Temp;Humidity;BMP_temperature;BMP_pressure;BME280_temperature;BME280_humidity;BME280_pressure;Samples;Min_cycle;Max_cycle;Signal;HPM_P1;HPM_P2
2022/06/13 00:00:30;;;;;;;4.78;2.88;;;16.20;99.90;;;16.03;100.00;97465.84;5026941;28;20416;-40
2022/06/13 00:02:57;;;;;;;4.20;2.97;;;16.20;99.90;;;16.00;100.00;97447.41;5043951;28;20033;-40
2022/06/13 00:05:23;;;;;;;4.57;2.95;;;16.20;99.90;;;16.03;100.00;97436.59;5034263;28;20028;-40
2022/06/13 00:07:49;;;;;;;5.03;3.00;;;16.20;99.90;;;16.02;100.00;97457.03;5026683;28;20713;-40
2022/06/13 00:10:15;;;;;;;4.63;3.03;;;16.20;99.90;;;15.95;100.00;97454.78;5029282;28;21416;-39
2022/06/13 00:12:43;;;;;;;5.63;2.50;;;16.20;99.90;;;15.92;100.00;97460.31;5032057;28;20033;-39
2022/06/13 00:15:13;;;;;;;5.25;2.50;;;16.10;99.90;;;15.96;100.00;97467.16;5030635;28;20653;-40
2022/06/13 00:17:39;;;;;;;4.47;2.90;;;16.10;99.90;;;15.93;100.00;97459.34;5026531;28;20194;-39
2022/06/13 00:20:06;;;;;;;3.30;2.50;;;16.10;99.90;;;15.95;100.00;97465.44;5024356;28;20484;-40
2022/06/13 00:22:33;;;;;;;5.07;2.65;;;16.10;99.90;;;15.95;100.00;97463.66;5029398;28;20033;-39
2022/06/13 00:24:59;;;;;;;3.45;2.45;;;16.10;99.90;;;15.97;100.00;97468.84;5031271;28;20067;-39
2022/06/13 00:27:25;;;;;;;4.72;2.40;;;16.10;99.90;;;16.02;100.00;97466.78;5030266;28;20123;-39
2022/06/13 00:29:51;;;;;;;2.83;2.15;;;16.20;99.90;;;15.77;100.00;97412.38;5032172;28;20064;-39
2022/06/13 00:32:17;;;;;;;7.35;2.65;;;16.20;99.90;;;16.08;100.00;97446.94;5029865;28;20132;-39
2022/06/13 00:34:44;;;;;;;4.25;2.80;;;16.20;99.90;;;16.04;100.00;97435.63;5023417;28;20074;-39
2022/06/13 00:37:10;;;;;;;3.42;2.60;;;16.20;99.90;;;16.11;100.00;97442.31;5027228;28;20710;-40
2022/06/13 00:39:35;;;;;;;3.97;2.40;;;16.30;99.90;;;16.15;100.00;97451.84;5028251;28;20459;-40
2022/06/13 00:42:02;;;;;;;3.50;2.58;;;16.30;99.90;;;16.16;100.00;97445.56;5034767;28;20111;-39
2022/06/13 00:44:33;;;;;;;5.13;2.63;;;16.30;99.90;;;16.17;100.00;97441.97;5036987;28;20052;-39
2022/06/13 00:46:59;;;;;;;3.50;2.30;;;16.30;99.90;;;16.18;100.00;97443.66;5023881;28;20396;-39
2022/06/13 00:49:44;;;;;;;3.85;2.90;;;16.30;99.90;;;16.16;100.00;97442.03;5031101;28;20195;-39
2022/06/13 00:52:24;;;;;;;3.90;2.30;;;16.30;99.90;;;16.20;100.00;97430.25;5031130;28;20075;-39
2022/06/13 00:54:51;;;;;;;2.97;2.65;;;16.30;99.90;;;16.21;100.00;97421.34;5027640;28;20437;-39
2022/06/13 00:57:21;;;;;;;3.30;2.28;;;16.30;99.90;;;16.23;100.00;97422.09;5020274;28;20442;-39
2022/06/13 00:59:52;;;;;;;3.65;2.33;;;16.40;99.90;;;16.23;100.00;97416.78;5030215;28;20028;-39
2022/06/13 01:02:18;;;;;;;2.92;2.30;;;16.40;99.90;;;16.20;100.00;97417.84;5034126;28;20031;-39
2022/06/13 01:04:46;;;;;;;3.75;3.15;;;16.40;99.90;;;16.19;100.00;97412.59;5046200;28;20029;-39
2022/06/13 01:07:12;;;;;;;4.65;2.53;;;16.30;99.90;;;16.15;100.00;97421.69;5027284;28;20753;-39
2022/06/13 01:12:25;;;;;;;3.92;2.67;;;16.30;99.90;;;16.11;100.00;97421.03;5047625;22;20059;-39
2022/06/13 01:15:28;;;;;;;3.42;2.38;;;16.20;99.90;;;16.09;100.00;97417.59;5032047;28;22698;-39
2022/06/13 01:18:29;;;;;;;2.72;2.47;;;16.20;99.90;;;16.08;100.00;97418.56;5031360;28;20029;-39
2022/06/13 01:21:17;;;;;;;4.03;2.38;;;16.20;99.90;;;16.06;100.00;97420.47;5026521;28;20037;-39
2022/06/13 01:24:26;;;;;;;3.80;2.88;;;16.20;99.90;;;16.05;100.00;97423.22;5016033;28;20037;-39
2022/06/13 01:27:16;;;;;;;5.82;2.90;;;16.20;99.90;;;16.03;100.00;97416.16;5013491;28;20032;-39
2022/06/13 01:30:26;;;;;;;4.38;2.50;;;16.20;99.90;;;16.00;100.00;97420.81;5017800;28;20034;-39
2022/06/13 01:33:20;;;;;;;4.25;2.50;;;16.20;99.90;;;15.98;100.00;97420.88;5009646;28;20267;-39
2022/06/13 01:36:31;;;;;;;5.40;2.50;;;16.20;99.90;;;15.95;100.00;97415.78;5012375;28;20409;-39
2022/06/13 01:39:46;;;;;;;3.78;2.72;;;16.10;99.90;;;15.93;100.00;97414.13;5015546;28;20044;-39
2022/06/13 01:42:58;;;;;;;4.30;2.90;;;16.10;99.90;;;15.92;100.00;97407.13;5014578;28;20049;-39
2022/06/13 01:45:40;;;;;;;3.05;2.70;;;16.10;99.90;;;15.90;100.00;97398.34;5016988;28;20444;-39
2022/06/13 01:48:57;;;;;;;3.28;2.70;;;16.10;99.90;;;15.82;100.00;97402.31;5008391;28;20127;-39
2022/06/13 01:52:01;;;;;;;4.28;2.72;;;16.00;99.90;;;15.77;100.00;97399.09;5019354;28;20057;-39
2022/06/13 01:54:47;;;;;;;4.55;2.60;;;16.00;99.90;;;15.75;100.00;97402.75;5010014;28;20052;-39
2022/06/13 01:57:38;;;;;;;3.53;2.40;;;15.90;99.90;;;15.72;100.00;97408.22;5014660;28;20088;-39
2022/06/13 02:00:13;;;;;;;3.03;2.63;;;15.90;99.90;;;15.73;100.00;97415.25;5014906;28;20032;-39
2022/06/13 02:02:59;;;;;;;5.72;2.60;;;15.90;99.90;;;15.76;100.00;97401.81;5010672;28;20924;-39
2022/06/13 02:05:48;;;;;;;6.35;3.20;;;15.90;99.90;;;15.79;100.00;97417.56;5009931;28;20482;-39
2022/06/13 02:08:25;;;;;;;4.20;2.92;;;15.90;99.90;;;15.80;100.00;97416.66;5013909;28;20040;-39
2022/06/13 02:10:58;;;;;;;4.72;2.88;;;16.00;99.90;;;15.79;100.00;97422.91;5009243;28;21492;-39
2022/06/13 02:13:47;;;;;;;3.85;2.60;;;16.00;99.90;;;15.76;100.00;97439.91;5010482;28;20098;-39
2022/06/13 02:16:26;;;;;;;3.85;2.80;;;15.90;99.90;;;15.72;100.00;97435.69;5013192;28;20499;-39
2022/06/13 02:19:25;;;;;;;5.80;3.10;;;15.90;99.90;;;15.70;100.00;97440.19;5010105;28;20041;-39
2022/06/13 02:21:58;;;;;;;5.03;3.05;;;15.90;99.90;;;15.61;100.00;97435.41;5009390;28;20134;-39
2022/06/13 02:24:33;;;;;;;3.67;2.95;;;15.90;99.90;;;15.60;100.00;97439.03;5009021;28;20037;-39
2022/06/13 02:26:59;;;;;;;6.80;3.00;;;15.80;99.90;;;15.58;100.00;97432.94;5015320;28;20125;-39
2022/06/13 02:29:31;;;;;;;5.05;2.50;;;15.80;99.90;;;15.52;100.00;97425.31;5027905;28;20778;-39
2022/06/13 02:32:06;;;;;;;5.10;2.80;;;15.70;99.90;;;15.42;100.00;97428.47;5009340;28;20038;-38
2022/06/13 02:34:45;;;;;;;7.30;2.90;;;15.60;99.90;;;15.38;100.00;97424.28;5012217;28;20033;-38
2022/06/13 02:37:31;;;;;;;4.93;2.53;;;15.60;99.90;;;15.32;100.00;97427.28;5025497;28;20104;-39
2022/06/13 02:40:31;;;;;;;4.22;2.58;;;15.50;99.90;;;15.28;100.00;97426.59;5011826;28;20060;-39
2022/06/13 02:43:10;;;;;;;5.03;2.40;;;15.50;99.90;;;15.19;100.00;97426.25;5009170;28;20029;-39
2022/06/13 02:45:50;;;;;;;6.97;2.75;;;15.40;99.90;;;15.07;100.00;97415.38;5013736;28;20025;-39
2022/06/13 02:48:21;;;;;;;5.50;2.58;;;15.30;99.90;;;14.96;100.00;97423.03;5009163;28;20061;-38
2022/06/13 02:51:05;;;;;;;3.17;2.45;;;15.20;99.90;;;14.88;100.00;97427.94;5011532;28;20037;-39
2022/06/13 02:53:55;;;;;;;3.67;2.28;;;15.10;99.90;;;14.76;100.00;97421.47;5015974;28;20875;-39
2022/06/13 03:00:08;;;;;;;2.92;2.20;;;15.00;99.90;;;14.67;100.00;97421.97;5013964;28;20056;-39
2022/06/13 03:03:01;;;;;;;4.63;2.75;;;14.90;99.90;;;14.64;100.00;97425.66;5010526;28;20041;-39
2022/06/13 03:05:45;;;;;;;4.88;2.53;;;14.90;99.90;;;14.58;100.00;97425.94;4999688;28;20045;-39
2022/06/13 03:08:27;;;;;;;4.65;2.92;;;14.80;99.90;;;14.55;100.00;97433.19;5011434;28;20379;-39
2022/06/13 03:11:32;;;;;;;9.48;3.08;;;14.70;99.90;;;14.41;100.00;97425.94;5012264;28;20036;-39
2022/06/13 03:14:31;;;;;;;5.38;2.90;;;14.70;99.90;;;14.36;100.00;97425.34;5016373;28;20041;-39
2022/06/13 03:17:22;;;;;;;4.50;2.78;;;14.60;99.90;;;14.33;100.00;97423.69;5016726;28;20026;-39
2022/06/13 03:20:24;;;;;;;3.60;2.70;;;14.50;99.90;;;14.19;100.00;97428.84;5012178;28;20034;-38
2022/06/13 03:23:15;;;;;;;4.03;2.95;;;14.50;99.90;;;14.09;100.00;97428.47;5027106;28;20030;-39
2022/06/13 03:25:49;;;;;;;4.70;3.05;;;14.40;99.90;;;14.09;100.00;97429.31;5027279;28;20937;-38
2022/06/13 03:28:21;;;;;;;7.63;3.10;;;14.40;99.90;;;14.05;100.00;97434.84;5018003;28;20041;-38
2022/06/13 03:30:55;;;;;;;4.22;2.58;;;14.30;99.90;;;13.92;100.00;97435.44;5014567;28;20065;-38
2022/06/13 03:33:42;;;;;;;6.47;3.03;;;14.20;99.90;;;13.89;100.00;97429.44;5012655;28;20397;-38
2022/06/13 03:36:31;;;;;;;6.95;3.22;;;14.10;99.90;;;13.82;100.00;97433.34;5018848;28;20393;-39
2022/06/13 03:39:28;;;;;;;4.80;2.75;;;14.10;99.90;;;13.77;100.00;97438.03;5011818;28;20029;-38
2022/06/13 03:42:10;;;;;;;8.23;3.03;;;14.00;99.90;;;13.70;100.00;97435.66;5013984;28;20034;-38
2022/06/13 03:44:58;;;;;;;6.93;3.30;;;14.00;99.90;;;13.70;100.00;97443.63;5014743;28;20263;-38
2022/06/13 03:47:40;;;;;;;7.30;3.03;;;13.90;99.90;;;13.65;100.00;97450.94;5016787;28;20045;-38
2022/06/13 03:50:24;;;;;;;6.57;3.85;;;13.90;99.90;;;13.66;100.00;97455.31;5014555;28;20029;-38
2022/06/13 03:52:58;;;;;;;5.65;3.00;;;13.90;99.90;;;13.65;100.00;97448.28;5017157;28;20029;-38
2022/06/13 03:55:47;;;;;;;8.15;3.50;;;13.90;99.90;;;13.69;100.00;97447.22;5016323;28;20126;-38
2022/06/13 03:58:18;;;;;;;6.18;3.22;;;13.90;99.90;;;13.67;100.00;97445.56;5008793;28;20124;-39
2022/06/13 04:00:55;;;;;;;5.78;3.00;;;13.90;99.90;;;13.59;100.00;97447.75;5013857;28;20097;-38
2022/06/13 04:03:24;;;;;;;9.35;3.22;;;13.80;99.90;;;13.55;100.00;97447.88;5013450;28;20030;-38
2022/06/13 04:06:02;;;;;;;7.93;3.85;;;13.80;99.90;;;13.55;100.00;97442.56;5016833;28;20033;-38
2022/06/13 04:08:31;;;;;;;9.80;3.63;;;13.80;99.90;;;13.40;100.00;97429.19;5014382;28;20555;-38
2022/06/13 04:11:22;;;;;;;6.78;3.60;;;13.80;99.90;;;13.38;100.00;97439.88;5016873;28;20557;-39
2022/06/13 04:14:17;;;;;;;7.70;2.95;;;13.70;99.90;;;13.38;100.00;97439.03;5014792;28;20485;-38
2022/06/13 04:17:30;;;;;;;7.65;3.35;;;13.70;99.90;;;13.39;100.00;97441.59;5017997;28;20128;-38
2022/06/13 04:20:09;;;;;;;6.78;3.10;;;13.70;99.90;;;13.37;100.00;97438.16;5015792;28;20073;-38
2022/06/13 04:22:53;;;;;;;9.07;3.95;;;13.60;99.90;;;13.38;100.00;97447.81;5015096;28;20238;-38
2022/06/13 04:25:36;;;;;;;6.25;3.45;;;13.60;99.90;;;13.40;100.00;97451.25;5027442;28;20030;-39
2022/06/13 04:28:30;;;;;;;9.27;3.80;;;13.70;99.90;;;13.41;100.00;97455.63;5017275;28;20041;-39
2022/06/13 04:30:58;;;;;;;8.25;3.33;;;13.70;99.90;;;13.38;100.00;97445.16;5012805;28;20109;-38
2022/06/13 04:33:42;;;;;;;8.00;3.67;;;13.70;99.90;;;13.42;100.00;97451.19;5016284;28;20033;-38
2022/06/13 04:36:11;;;;;;;7.43;3.72;;;13.80;99.90;;;13.52;100.00;97455.97;5018147;28;20330;-38
2022/06/13 04:38:42;;;;;;;9.95;3.78;;;13.80;99.90;;;13.48;100.00;97461.50;5013436;28;20035;-38
2022/06/13 04:41:10;;;;;;;10.02;3.40;;;13.80;99.90;;;13.52;100.00;97457.75;5017016;28;20045;-38
2022/06/13 04:43:42;;;;;;;9.50;3.95;;;13.80;99.90;;;13.62;100.00;97469.66;5019492;28;20028;-38
2022/06/13 04:46:18;;;;;;;8.57;3.80;;;13.90;99.90;;;13.60;100.00;97466.19;5031319;28;20033;-38
2022/06/13 04:48:46;;;;;;;7.63;3.72;;;13.90;99.90;;;13.70;100.00;97471.91;5013728;28;20046;-38
2022/06/13 04:51:16;;;;;;;9.73;3.15;;;13.90;99.90;;;13.75;100.00;97470.75;5013826;28;20895;-38
2022/06/13 04:53:59;;;;;;;6.47;3.00;;;14.00;99.90;;;13.87;100.00;97469.31;5033702;28;20087;-38
2022/06/13 04:56:25;;;;;;;8.32;3.10;;;14.10;99.90;;;13.93;100.00;97482.25;5018878;28;20707;-38
2022/06/13 04:58:53;;;;;;;7.93;3.13;;;14.10;99.90;;;14.14;100.00;97479.50;5014625;28;20065;-38
2022/06/13 05:01:36;;;;;;;7.60;3.20;;;14.20;99.90;;;14.44;100.00;97487.66;5031690;28;20074;-38
2022/06/13 05:04:06;;;;;;;11.43;3.75;;;14.30;99.90;;;14.92;100.00;97487.03;5014483;28;20808;-38
2022/06/13 05:06:40;;;;;;;9.65;3.10;;;14.60;99.90;;;15.20;100.00;97491.69;5019093;28;20111;-39
2022/06/13 05:09:26;;;;;;;5.43;2.72;;;14.80;99.90;;;15.65;100.00;97495.47;5013787;28;20044;-39
2022/06/13 05:12:04;;;;;;;5.95;2.22;;;15.10;99.90;;;15.85;100.00;97505.00;5017987;28;20759;-39
2022/06/13 05:15:08;;;;;;;9.50;2.78;;;15.30;99.90;;;16.40;100.00;97506.25;5010295;28;20171;-39
2022/06/13 05:18:14;;;;;;;11.80;2.50;;;15.70;99.90;;;16.91;100.00;97517.44;5008300;28;20041;-39
2022/06/13 05:21:00;;;;;;;6.03;2.25;;;16.00;99.90;;;17.78;100.00;97520.09;5014884;28;20512;-38
2022/06/13 05:23:56;;;;;;;4.95;2.22;;;16.40;99.90;;;18.74;94.49;97520.88;5014564;28;20045;-38
2022/06/13 05:26:28;;;;;;;6.78;2.40;;;17.00;99.90;;;19.44;88.80;97525.84;5012687;28;20037;-38
2022/06/13 05:28:56;;;;;;;8.45;2.67;;;17.70;99.90;;;20.07;84.77;97533.84;5011484;28;20033;-38
2022/06/13 05:31:23;;;;;;;8.55;2.70;;;18.10;99.90;;;19.79;77.22;97530.53;5010337;28;20037;-38
2022/06/13 05:33:50;;;;;;;5.00;2.00;;;18.40;99.90;;;19.42;80.97;97540.28;5016085;28;20026;-38
2022/06/13 05:36:20;;;;;;;7.15;2.42;;;18.30;99.90;;;18.84;88.31;97543.38;5015829;28;20036;-38
2022/06/13 05:38:53;;;;;;;11.63;2.63;;;18.10;99.90;;;18.18;91.90;97547.75;5028467;28;20116;-39
2022/06/13 05:41:18;;;;;;;8.85;2.70;;;17.70;99.90;;;17.42;97.01;97548.13;5011220;28;20036;-39
2022/06/13 05:43:44;;;;;;;9.10;2.55;;;17.30;99.90;;;17.11;98.46;97547.34;5009770;28;20029;-38
2022/06/13 05:46:34;;;;;;;9.95;2.90;;;17.00;99.90;;;16.70;100.00;97553.31;5011340;28;20248;-38
2022/06/13 05:49:01;;;;;;;12.23;2.90;;;16.70;99.90;;;16.44;100.00;97555.72;5011225;28;20041;-38
2022/06/13 05:51:27;;;;;;;10.00;2.90;;;16.50;99.90;;;16.17;100.00;97555.53;5015615;28;20033;-38
2022/06/13 05:53:53;;;;;;;8.38;2.80;;;16.30;99.90;;;16.06;100.00;97557.91;5015696;28;20064;-38
2022/06/13 05:56:20;;;;;;;7.90;2.08;;;16.20;99.90;;;15.98;100.00;97566.34;5013437;28;20029;-38
2022/06/13 05:58:46;;;;;;;8.70;2.88;;;16.10;99.90;;;15.77;100.00;97547.97;5015474;28;20497;-38
2022/06/13 06:01:15;;;;;;;7.75;2.42;;;16.00;99.90;;;15.80;100.00;97569.06;5011298;28;20086;-38
2022/06/13 06:03:42;;;;;;;7.20;2.75;;;16.00;99.90;;;15.78;100.00;97570.97;5009732;28;20025;-38
2022/06/13 06:06:13;;;;;;;9.15;2.70;;;15.90;99.90;;;15.76;100.00;97572.84;5011884;28;20068;-38
2022/06/13 06:08:40;;;;;;;7.82;2.53;;;15.90;99.90;;;15.80;100.00;97574.38;5013573;28;20022;-38
2022/06/13 06:11:05;;;;;;;9.20;2.85;;;15.90;99.90;;;15.77;100.00;97577.25;5011274;28;20033;-38
2022/06/13 06:13:31;;;;;;;11.68;2.50;;;15.90;99.90;;;15.75;100.00;97583.56;5013722;28;21234;-38
2022/06/13 06:16:00;;;;;;;7.57;2.70;;;16.00;99.90;;;15.75;100.00;97573.78;5007625;28;20040;-38
2022/06/13 06:18:26;;;;;;;9.93;2.95;;;16.00;99.90;;;15.80;100.00;97582.34;5016762;28;20025;-38
2022/06/13 06:20:52;;;;;;;6.70;3.40;;;16.00;99.90;;;15.92;100.00;97587.97;5010006;28;20025;-38
2022/06/13 06:23:18;;;;;;;8.07;2.80;;;16.10;99.90;;;15.93;100.00;97593.16;5010900;28;20025;-38
2022/06/13 06:25:47;;;;;;;8.27;2.72;;;16.10;99.90;;;15.95;100.00;97588.66;5016832;28;20116;-38
2022/06/13 06:28:23;;;;;;;6.47;2.50;;;16.20;99.90;;;16.00;100.00;97591.03;5013353;28;20108;-38
2022/06/13 06:30:53;;;;;;;9.98;2.28;;;16.20;99.90;;;16.16;100.00;97601.69;5007467;28;20029;-38
2022/06/13 06:33:20;;;;;;;8.07;2.38;;;16.30;99.90;;;16.30;100.00;97608.91;5012056;28;20087;-41
2022/06/13 06:35:48;;;;;;;4.75;2.33;;;16.40;99.90;;;16.33;91.83;97614.03;5011804;28;20448;-41
2022/06/13 06:38:14;;;;;;;13.07;2.47;;;16.50;99.90;;;16.45;95.55;97602.69;5014364;28;20033;-41
2022/06/13 06:40:39;;;;;;;8.02;2.42;;;16.60;99.90;;;16.63;97.77;97607.91;5012694;28;20025;-41
2022/06/13 06:43:06;;;;;;;9.02;2.60;;;16.80;99.90;;;16.56;89.00;97616.25;5017530;28;20071;-41
2022/06/13 06:45:32;;;;;;;6.15;2.28;;;16.90;99.90;;;16.74;97.70;97613.44;5009516;28;20033;-41
2022/06/13 06:47:58;;;;;;;6.10;2.10;;;16.90;99.90;;;16.82;92.93;97615.69;5012953;28;20025;-41
2022/06/13 06:50:29;;;;;;;4.05;2.30;;;17.00;99.90;;;16.83;81.61;97620.03;5007807;28;20533;-40
2022/06/13 06:52:55;;;;;;;7.53;2.22;;;17.10;99.90;;;16.85;83.61;97621.72;5008205;28;20038;-40
2022/06/13 07:01:03;;;;;;;5.13;2.08;;;17.40;99.90;;;17.32;87.91;97627.81;5011756;28;20354;-40
2022/06/13 07:03:29;;;;;;;5.53;2.10;;;17.50;99.90;;;17.40;87.22;97628.19;5010917;28;20026;-40
2022/06/13 07:05:54;;;;;;;10.68;2.28;;;17.60;99.90;;;17.46;86.79;97633.16;5010964;28;20076;-42
2022/06/13 07:08:20;;;;;;;5.85;2.35;;;17.70;99.90;;;17.59;90.83;97629.75;5004928;28;20045;-41
2022/06/13 07:10:48;;;;;;;8.88;2.42;;;17.80;99.90;;;17.56;85.42;97628.97;5014769;28;20044;-40
2022/06/13 07:13:16;;;;;;;4.70;1.70;;;17.80;99.90;;;17.62;81.94;97627.75;5027039;22;20037;-44
2022/06/13 07:15:42;;;;;;;5.88;2.08;;;17.80;99.90;;;17.59;81.26;97619.94;5024129;28;20041;-43
2022/06/13 07:18:09;;;;;;;3.40;1.88;;;17.90;99.90;;;17.75;81.07;97627.84;5031785;28;20570;-43
2022/06/13 07:20:35;;;;;;;5.63;1.80;;;17.90;99.90;;;17.84;87.18;97631.75;5019946;28;20068;-40
2022/06/13 07:23:02;;;;;;;8.70;2.08;;;18.00;99.90;;;17.86;83.07;97637.88;5018073;28;20037;-41
2022/06/13 07:25:30;;;;;;;6.10;2.65;;;18.10;99.90;;;17.88;78.25;97635.97;4999176;28;20037;-47
2022/06/13 07:27:57;;;;;;;7.18;2.50;;;18.10;99.90;;;17.88;76.92;97633.28;5011610;28;20037;-46
2022/06/13 07:30:27;;;;;;;5.47;2.22;;;18.20;99.90;;;17.97;77.84;97642.53;4998730;28;20034;-39
2022/06/13 07:32:54;;;;;;;7.03;2.30;;;18.20;99.90;;;17.98;80.81;97639.78;4999926;28;20060;-40
2022/06/13 07:35:22;;;;;;;6.95;2.13;;;18.30;99.90;;;17.96;76.16;97639.00;5009458;28;20037;-39
2022/06/13 07:40:36;;;;;;;5.75;1.92;;;18.30;99.90;;;18.13;75.60;97648.63;5005455;28;20493;-39
2022/06/13 07:43:03;;;;;;;5.82;2.20;;;18.30;99.90;;;18.21;74.12;97648.13;4999527;28;20037;-39
2022/06/13 07:45:34;;;;;;;9.18;2.72;;;18.40;99.90;;;18.23;78.03;97648.88;5010861;28;20053;-39
2022/06/13 07:48:00;;;;;;;7.13;2.28;;;18.40;99.90;;;18.12;73.28;97657.56;5007691;28;20033;-39
2022/06/13 07:50:27;;;;;;;7.22;1.95;;;18.50;99.90;;;18.21;73.88;97658.78;5008663;28;20113;-39
2022/06/13 07:52:54;;;;;;;7.10;2.00;;;18.50;99.90;;;18.21;76.72;97650.78;5000406;28;20030;-39
2022/06/13 07:55:22;;;;;;;8.48;2.17;;;18.50;99.90;;;18.32;79.24;97658.94;5010506;28;20056;-39
2022/06/13 07:57:48;;;;;;;3.90;1.75;;;18.50;99.90;;;18.37;73.88;97651.50;5010044;28;20025;-39
2022/06/13 08:00:26;;;;;;;7.65;1.92;;;18.60;99.90;;;18.39;72.47;97662.94;5005445;28;20501;-39
2022/06/13 08:02:56;;;;;;;6.50;2.00;;;18.70;99.90;;;18.56;72.94;97659.19;5009622;28;20043;-39
2022/06/13 08:05:22;;;;;;;4.85;1.70;;;18.70;99.90;;;18.69;77.74;97668.09;5008018;28;20061;-40
2022/06/13 08:07:47;;;;;;;10.77;2.30;;;18.90;99.90;;;18.69;70.74;97656.56;4999301;28;20041;-39
2022/06/13 08:10:13;;;;;;;12.05;3.05;;;18.90;99.90;;;18.74;71.77;97659.81;4997328;28;20076;-40
2022/06/13 08:12:42;;;;;;;5.47;2.10;;;19.00;99.90;;;18.80;66.41;97670.06;5007931;28;20029;-40
2022/06/13 08:15:08;;;;;;;7.45;2.17;;;19.10;99.90;;;18.90;67.10;97667.69;5007781;28;20043;-40
2022/06/13 08:17:34;;;;;;;5.72;2.10;;;19.10;99.90;;;19.05;67.57;97663.13;5008382;28;20034;-40
2022/06/13 08:20:00;;;;;;;4.18;1.80;;;19.30;99.90;;;19.17;71.63;97661.47;5007516;28;20524;-40
2022/06/13 08:22:26;;;;;;;7.68;2.17;;;19.40;99.90;;;19.37;71.56;97668.13;5006854;28;20026;-40
2022/06/13 08:24:51;;;;;;;5.95;2.17;;;19.50;99.90;;;19.53;70.02;97671.44;5007816;28;20036;-40
2022/06/13 08:27:17;;;;;;;6.95;1.92;;;19.60;99.90;;;19.56;68.72;97673.03;5000879;28;20494;-40
2022/06/13 08:29:43;;;;;;;4.50;1.80;;;19.70;99.90;;;19.63;69.12;97677.88;5006803;28;20028;-40
2022/06/13 08:32:09;;;;;;;6.05;1.90;;;19.80;99.90;;;19.64;64.82;97682.25;5011355;28;20428;-40
2022/06/13 08:34:37;;;;;;;9.38;1.88;;;19.80;99.90;;;19.73;63.08;97678.13;5011005;28;20497;-40
2022/06/13 08:37:03;;;;;;;8.30;1.70;;;19.90;99.90;;;19.90;63.24;97671.59;5002684;28;20068;-40
2022/06/13 08:39:29;;;;;;;10.80;2.30;;;20.10;99.90;;;20.14;64.12;97673.50;5004197;28;20129;-40
2022/06/13 08:42:00;;;;;;;4.85;2.13;;;20.30;99.90;;;20.27;60.83;97679.66;5000296;28;20083;-40
2022/06/13 08:45:00;;;;;;;5.28;2.15;;;20.40;99.90;;;20.29;64.09;97680.41;5005033;28;20029;-39
2022/06/13 08:47:48;;;;;;;7.05;1.80;;;20.40;99.90;;;20.25;59.66;97681.59;5008599;28;20046;-39
2022/06/13 08:50:20;;;;;;;6.55;2.35;;;20.40;99.90;;;20.13;60.01;97683.31;5005175;28;20906;-39
2022/06/13 08:52:58;;;;;;;4.57;1.88;;;20.40;99.90;;;19.97;64.04;97686.25;5021258;28;20035;-39
2022/06/13 08:55:47;;;;;;;6.32;2.55;;;20.20;99.90;;;19.80;63.57;97691.94;5010565;28;20030;-40
2022/06/13 08:59:22;;;;;;;8.32;2.55;;;20.00;99.90;;;19.81;63.92;97694.50;5008281;28;20040;-39
2022/06/13 09:02:01;;;;;;;5.82;2.00;;;20.10;99.90;;;19.93;60.38;97695.44;4961396;28;20038;-40
2022/06/13 09:04:35;;;;;;;5.15;2.28;;;20.20;99.90;;;19.87;60.59;97695.03;4957225;28;20097;-39
2022/06/13 09:07:11;;;;;;;5.88;2.00;;;20.10;99.90;;;19.90;61.56;97697.47;5000655;28;20599;-39
2022/06/13 09:09:57;;;;;;;6.60;2.30;;;20.10;99.90;;;19.90;65.42;97698.38;5001239;28;20029;-38
2022/06/13 09:12:37;;;;;;;4.20;1.85;;;20.20;99.90;;;20.27;62.41;97701.09;5008646;28;20030;-38
2022/06/13 09:15:20;;;;;;;4.95;2.30;;;20.40;99.90;;;20.41;61.55;97702.78;5014134;28;20044;-39
2022/06/13 09:17:55;;;;;;;10.10;2.22;;;20.60;99.90;;;20.26;54.07;97688.69;5001434;28;20036;-38
2022/06/13 09:20:28;;;;;;;5.32;2.28;;;20.70;99.90;;;20.49;62.80;97700.38;5004556;28;20033;-40
2022/06/13 09:23:06;;;;;;;6.10;2.10;;;20.70;99.90;;;20.63;59.60;97704.78;5023296;28;20018;-40
2022/06/13 09:26:06;;;;;;;7.65;2.50;;;20.80;99.90;;;20.50;55.75;97704.78;5008488;28;20038;-40
2022/06/13 09:29:21;;;;;;;3.22;1.90;;;20.80;99.90;;;20.54;55.15;97708.09;5004043;28;20041;-40
2022/06/13 09:32:21;;;;;;;8.23;2.33;;;20.70;99.70;;;20.63;53.68;97704.78;4990062;28;20128;-40
2022/06/13 09:34:52;;;;;;;7.10;2.20;;;20.90;98.40;;;20.76;53.61;97710.97;4998113;28;20502;-40
2022/06/13 09:37:35;;;;;;;3.65;2.00;;;20.90;98.80;;;20.57;57.84;97706.06;5012439;28;20029;-40
2022/06/13 09:40:02;;;;;;;6.38;2.90;;;20.80;99.90;;;20.25;51.23;97712.88;5008580;28;20032;-40
2022/06/13 09:43:03;;;;;;;4.70;1.90;;;20.60;97.50;;;20.24;53.26;97712.00;5001362;28;20103;-40
2022/06/13 09:45:41;;;;;;;5.80;1.90;;;20.50;98.50;;;20.48;52.82;97704.06;5005947;28;20053;-39
2022/06/13 09:48:39;;;;;;;3.50;1.60;;;20.70;98.00;;;20.18;52.27;97717.81;5012429;28;20073;-39
2022/06/13 09:51:37;;;;;;;7.45;2.05;;;20.50;97.50;;;19.73;50.02;97706.66;5009809;28;20413;-39
2022/06/13 09:54:30;;;;;;;4.70;1.77;;;20.20;95.80;;;19.79;49.71;97712.50;5005462;28;20669;-39
2022/06/13 09:57:24;;;;;;;7.07;1.98;;;20.20;96.00;;;19.94;53.42;97701.69;5012028;28;20048;-40
2022/06/13 10:00:00;;;;;;;5.95;1.60;;;20.20;96.40;;;20.08;54.67;97706.91;5014423;28;20045;-40
2022/06/13 10:02:52;;;;;;;6.05;1.90;;;20.30;97.80;;;20.32;55.40;97703.44;5007384;28;20029;-39
2022/06/13 10:05:37;;;;;;;6.00;1.73;;;20.50;98.50;;;20.47;58.51;97699.66;4998865;28;20044;-39
2022/06/13 10:08:30;;;;;;;5.82;1.73;;;20.70;99.30;;;20.25;52.23;97694.16;5010443;28;20037;-39
2022/06/13 10:11:19;;;;;;;4.88;2.00;;;20.50;97.10;;;20.05;50.81;97692.91;5012239;28;20172;-39
2022/06/13 10:14:29;;;;;;;3.50;1.73;;;20.30;95.90;;;20.23;51.63;97699.59;5007118;28;20067;-40
2022/06/13 10:17:01;;;;;;;4.15;1.88;;;20.40;96.60;;;20.35;50.71;97696.06;5006520;28;20075;-40
2022/06/13 10:19:44;;;;;;;5.38;1.80;;;20.60;96.00;;;20.62;51.28;97704.88;5006666;28;20140;-40
2022/06/13 10:22:29;;;;;;;6.90;1.83;;;20.80;95.80;;;20.97;52.37;97710.34;5010766;28;20029;-40
2022/06/13 10:25:33;;;;;;;5.00;1.58;;;21.20;97.00;;;21.12;43.78;97711.88;5020996;28;20529;-40
2022/06/13 10:28:28;;;;;;;4.97;1.67;;;21.40;90.90;;;21.22;44.43;97713.88;5010440;28;20048;-40
2022/06/13 10:31:12;;;;;;;3.22;1.55;;;21.50;92.80;;;21.30;46.55;97698.03;5008698;28;20037;-40
2022/06/13 10:33:40;;;;;;;5.32;1.80;;;21.60;92.30;;;21.27;43.03;97711.72;5008368;28;20037;-39
2022/06/13 10:36:18;;;;;;;5.63;1.67;;;21.60;90.10;;;21.14;43.57;97711.78;5004867;28;20025;-39
2022/06/13 10:39:02;;;;;;;8.27;1.50;;;21.50;89.80;;;21.20;44.10;97705.94;5013838;28;20041;-39
2022/06/13 10:41:30;;;;;;;5.75;1.70;;;21.50;89.80;;;20.98;43.45;97701.34;5008214;28;20033;-39
2022/06/13 10:43:58;;;;;;;5.30;1.42;;;21.40;89.10;;;20.85;44.46;97698.69;5017964;28;20662;-39
2022/06/13 10:46:24;;;;;;;5.97;1.88;;;21.20;89.00;;;20.95;45.58;97699.72;5006649;28;20120;-39
2022/06/13 10:49:03;;;;;;;5.07;1.45;;;21.30;90.50;;;21.02;46.45;97699.28;5030600;28;20108;-39
2022/06/13 10:51:29;;;;;;;6.13;1.90;;;21.30;90.80;;;21.11;47.24;97699.44;5012338;28;20233;-39
2022/06/13 10:54:25;;;;;;;5.68;1.63;;;21.40;91.10;;;21.38;49.22;97701.00;5012071;28;20100;-39
2022/06/13 10:57:05;;;;;;;5.93;1.63;;;21.60;94.00;;;21.45;47.32;97698.72;5013841;28;20021;-39
2022/06/13 10:59:35;;;;;;;8.35;2.20;;;21.70;91.90;;;21.51;45.78;97709.00;5010360;28;20184;-40
2022/06/13 11:02:05;;;;;;;7.07;2.05;;;21.80;91.20;;;21.52;45.99;97710.72;5018920;28;20713;-39
2022/06/13 11:04:34;;;;;;;3.75;1.77;;;21.80;90.50;;;21.38;46.62;97703.69;4995806;28;20128;-39
2022/06/13 11:07:20;;;;;;;4.40;1.40;;;21.70;91.00;;;21.19;50.54;97698.00;5000172;28;20267;-40
2022/06/13 11:09:58;;;;;;;5.13;1.75;;;21.50;92.40;;;21.37;50.15;97696.59;5001980;28;20044;-38
2022/06/13 11:12:33;;;;;;;5.25;1.42;;;21.60;93.60;;;21.40;44.08;97703.56;5008103;28;20029;-40